createdAt,value
2018-08-03T00:01:36.281Z,8.00
2018-08-03T00:04:04.285Z,5.73
2018-08-03T00:06:32.703Z,5.77
2018-08-03T00:09:00.975Z,5.53
2018-08-03T00:11:29.255Z,5.17
2018-08-03T00:13:57.529Z,6.60
2018-08-03T00:16:25.825Z,7.00
2018-08-03T00:18:53.819Z,5.60
2018-08-03T00:21:22.107Z,7.60
2018-08-03T00:23:50.367Z,5.63
2018-08-03T00:26:18.627Z,5.60
2018-08-03T00:28:46.913Z,5.37
2018-08-03T00:31:15.197Z,5.27
2018-08-03T00:33:43.486Z,6.13
2018-08-03T00:36:11.801Z,5.00
2018-08-03T00:38:40.082Z,4.97
2018-08-03T00:41:08.381Z,5.37
2018-08-03T00:43:36.653Z,5.13
2018-08-03T00:46:04.913Z,5.03
2018-08-03T00:48:33.163Z,7.27
2018-08-03T00:51:01.472Z,5.70
2018-08-03T00:53:30.244Z,5.33
2018-08-03T00:55:58.537Z,5.83
2018-08-03T00:58:26.799Z,5.87
2018-08-03T01:00:55.103Z,6.27
2018-08-03T01:03:23.403Z,5.33
2018-08-03T01:05:51.681Z,5.00
2018-08-03T01:08:19.985Z,6.07
2018-08-03T01:10:48.265Z,5.73
2018-08-03T01:13:16.547Z,7.10
2018-08-03T01:15:44.847Z,5.20
2018-08-03T01:18:12.875Z,5.13
2018-08-03T01:20:41.159Z,6.03
2018-08-03T01:23:09.432Z,4.97
2018-08-03T01:25:37.687Z,5.23
2018-08-03T01:28:06.015Z,7.50
2018-08-03T01:30:33.995Z,6.33
2018-08-03T01:33:02.261Z,5.50
2018-08-03T01:35:30.727Z,5.63
2018-08-03T01:37:59.034Z,5.13
2018-08-03T01:40:27.279Z,5.80
2018-08-03T01:42:55.571Z,5.40
2018-08-03T01:45:23.855Z,5.80
2018-08-03T01:47:52.107Z,5.27
2018-08-03T01:50:20.119Z,6.77
2018-08-03T01:52:48.453Z,7.73
2018-08-03T01:55:16.715Z,5.40
2018-08-03T01:57:44.979Z,6.13
2018-08-03T02:00:13.263Z,5.47
2018-08-03T02:02:41.567Z,5.30
2018-08-03T02:05:09.877Z,6.27
2018-08-03T02:07:38.128Z,7.50
2018-08-03T02:10:06.423Z,7.47
2018-08-03T02:12:34.688Z,9.73
2018-08-03T02:15:02.972Z,5.73
2018-08-03T02:17:31.284Z,7.43
2018-08-03T02:19:59.563Z,5.63
2018-08-03T02:22:27.818Z,5.70
2018-08-03T02:24:56.115Z,6.60
2018-08-03T02:27:24.459Z,7.60
2018-08-03T02:29:52.703Z,5.90
2018-08-03T02:32:20.702Z,7.27
2018-08-03T02:34:49.002Z,5.53
2018-08-03T02:37:17.280Z,5.60
2018-08-03T02:39:45.562Z,5.43
2018-08-03T02:42:13.891Z,6.80
2018-08-03T02:44:42.160Z,9.77
2018-08-03T02:47:10.464Z,6.63
2018-08-03T02:49:38.822Z,8.40
2018-08-03T02:52:07.079Z,5.67
2018-08-03T02:54:35.335Z,5.80
2018-08-03T02:57:03.635Z,5.73
2018-08-03T02:59:31.965Z,6.00
2018-08-03T03:02:00.301Z,5.20
2018-08-03T03:04:28.560Z,8.80
2018-08-03T03:06:56.611Z,5.03
2018-08-03T03:09:24.923Z,5.43
2018-08-03T03:11:53.176Z,7.03
2018-08-03T03:14:21.526Z,6.40
2018-08-03T03:16:49.791Z,5.30
2018-08-03T03:19:18.078Z,6.20
2018-08-03T03:21:46.331Z,6.60
2018-08-03T03:24:14.331Z,7.73
2018-08-03T03:26:42.873Z,5.90
2018-08-03T03:29:11.128Z,7.90
2018-08-03T03:31:39.432Z,5.10
2018-08-03T03:34:07.710Z,5.63
2018-08-03T03:36:36.003Z,6.73
2018-08-03T03:39:08.428Z,5.20
2018-08-03T03:41:36.704Z,5.80
2018-08-03T03:44:05.048Z,5.87
2018-08-03T03:46:33.328Z,6.23
2018-08-03T03:49:01.656Z,5.70
2018-08-03T03:51:29.998Z,6.10
2018-08-03T03:53:58.260Z,6.27
2018-08-03T03:56:26.567Z,5.50
2018-08-03T03:58:54.816Z,6.23
2018-08-03T04:01:23.124Z,9.70
2018-08-03T04:03:51.428Z,9.73
2018-08-03T04:06:19.760Z,7.60
2018-08-03T04:08:48.032Z,6.73
2018-08-03T04:11:16.310Z,6.03
2018-08-03T04:13:44.580Z,6.10
2018-08-03T04:16:12.844Z,6.17
2018-08-03T04:18:40.818Z,7.60
2018-08-03T04:21:09.079Z,6.80
2018-08-03T04:23:37.324Z,5.77
2018-08-03T04:26:05.479Z,6.27
2018-08-03T04:28:33.766Z,6.23
2018-08-03T04:31:02.015Z,7.63
2018-08-03T04:33:30.007Z,7.77
2018-08-03T04:35:58.336Z,7.13
2018-08-03T04:38:26.608Z,6.83
2018-08-03T04:40:54.876Z,6.77
2018-08-03T04:43:23.140Z,6.53
2018-08-03T04:45:51.550Z,14.90
2018-08-03T04:48:19.942Z,31.90
2018-08-03T04:50:48.261Z,34.83
2018-08-03T04:53:16.520Z,10.00
2018-08-03T04:55:44.824Z,9.40
2018-08-03T04:58:13.108Z,8.10
2018-08-03T05:00:41.404Z,7.27
2018-08-03T05:03:09.448Z,7.63
2018-08-03T05:05:37.705Z,7.67
2018-08-03T05:08:05.975Z,7.27
2018-08-03T05:10:34.248Z,6.87
2018-08-03T05:13:03.360Z,6.90
2018-08-03T05:15:31.663Z,7.20
2018-08-03T05:17:59.916Z,7.83
2018-08-03T05:20:28.182Z,7.67
2018-08-03T05:22:56.441Z,7.30
2018-08-03T05:25:24.786Z,7.20
2018-08-03T05:27:53.056Z,6.83
2018-08-03T05:30:21.363Z,8.07
2018-08-03T05:32:49.608Z,7.57
2018-08-03T05:35:17.952Z,7.20
2018-08-03T05:37:46.182Z,7.47
2018-08-03T05:40:14.468Z,7.03
2018-08-03T05:42:42.741Z,7.17
2018-08-03T05:45:11.010Z,8.57
2018-08-03T05:47:39.290Z,9.77
2018-08-03T05:50:07.606Z,7.27
2018-08-03T05:52:35.951Z,9.73
2018-08-03T05:55:04.010Z,10.13
2018-08-03T05:57:32.317Z,11.73
2018-08-03T06:00:00.631Z,8.50
2018-08-03T06:02:28.937Z,8.63
2018-08-03T06:04:57.213Z,8.90
2018-08-03T06:07:25.472Z,9.53
2018-08-03T06:09:53.813Z,8.77
2018-08-03T06:12:22.116Z,11.17
2018-08-03T06:14:50.408Z,9.37
2018-08-03T06:17:18.650Z,9.17
2018-08-03T06:19:47.056Z,8.93
2018-08-03T06:22:15.089Z,10.27
2018-08-03T06:24:43.364Z,10.40
2018-08-03T06:27:11.612Z,11.47
2018-08-03T06:29:39.901Z,11.23
2018-08-03T06:32:08.177Z,9.27
2018-08-03T06:34:36.464Z,10.33
2018-08-03T06:37:04.877Z,9.23
2018-08-03T06:39:33.161Z,10.73
2018-08-03T06:42:01.420Z,9.43
2018-08-03T06:44:29.716Z,8.77
2018-08-03T06:46:58.084Z,9.50
2018-08-03T06:49:26.350Z,12.70
2018-08-03T06:51:54.669Z,10.63
2018-08-03T06:54:22.978Z,10.63
2018-08-03T06:56:51.343Z,12.03
2018-08-03T06:59:19.361Z,12.27
2018-08-03T07:01:47.660Z,12.30
2018-08-03T07:04:15.669Z,9.37
2018-08-03T07:06:43.983Z,11.17
2018-08-03T07:09:13.077Z,9.77
2018-08-03T07:11:41.383Z,8.70
2018-08-03T07:14:09.399Z,8.83
2018-08-03T07:16:37.691Z,17.73
2018-08-03T07:19:05.967Z,10.27
2018-08-03T07:21:34.273Z,9.60
2018-08-03T07:24:02.545Z,9.60
2018-08-03T07:26:30.830Z,9.60
2018-08-03T07:28:59.119Z,9.60
2018-08-03T07:31:27.372Z,9.40
2018-08-03T07:33:55.659Z,9.03
2018-08-03T07:36:23.987Z,9.17
2018-08-03T07:38:52.249Z,10.97
2018-08-03T07:41:20.266Z,9.83
2018-08-03T07:43:48.523Z,10.33
2018-08-03T07:46:16.807Z,9.20
2018-08-03T07:48:45.073Z,10.63
2018-08-03T07:51:13.466Z,13.87
2018-08-03T07:53:41.741Z,9.07
2018-08-03T07:56:10.050Z,11.40
2018-08-03T07:58:38.327Z,11.57
2018-08-03T08:01:06.627Z,9.83
2018-08-03T08:03:34.903Z,9.03
2018-08-03T08:06:03.229Z,9.23
2018-08-03T08:08:31.503Z,10.00
2018-08-03T08:10:59.783Z,10.70
2018-08-03T08:13:28.057Z,9.30
2018-08-03T08:15:56.303Z,9.17
2018-08-03T08:18:24.607Z,8.93
2018-08-03T08:20:52.603Z,8.60
2018-08-03T08:23:20.923Z,9.07
2018-08-03T08:25:49.205Z,9.03
2018-08-03T08:28:17.555Z,9.13
2018-08-03T08:30:45.833Z,8.73
2018-08-03T08:33:14.088Z,8.97
2018-08-03T08:35:42.107Z,10.37
2018-08-03T08:38:10.395Z,9.17
2018-08-03T08:40:38.689Z,10.03
2018-08-03T08:43:06.995Z,9.93
2018-08-03T08:45:35.281Z,9.00
2018-08-03T08:48:03.587Z,9.90
2018-08-03T08:50:31.583Z,9.43
2018-08-03T08:53:00.191Z,9.10
2018-08-03T08:55:28.427Z,9.57
2018-08-03T08:57:56.895Z,9.50
2018-08-03T09:00:25.154Z,8.40
2018-08-03T09:02:53.495Z,9.13
2018-08-03T09:05:21.848Z,9.03
2018-08-03T09:07:50.390Z,9.10
2018-08-03T09:10:18.768Z,10.17
2018-08-03T09:12:47.110Z,9.30
2018-08-03T09:15:15.315Z,10.17
2018-08-03T09:17:43.576Z,9.47
2018-08-03T09:20:11.910Z,9.20
2018-08-03T09:22:40.180Z,9.07
2018-08-03T09:25:08.455Z,8.63
2018-08-03T09:27:36.720Z,9.20
2018-08-03T09:30:06.956Z,14.43
2018-08-03T09:32:35.234Z,9.97
2018-08-03T09:35:03.568Z,8.97
2018-08-03T09:37:31.857Z,11.50
2018-08-03T09:40:00.129Z,12.10
2018-08-03T09:42:28.401Z,9.80
2018-08-03T09:44:56.671Z,9.33
2018-08-03T09:47:24.936Z,8.87
2018-08-03T09:49:53.256Z,11.17
2018-08-03T09:52:21.632Z,10.83
2018-08-03T09:54:49.658Z,9.80
2018-08-03T09:57:17.638Z,12.10
2018-08-03T09:59:45.663Z,9.33
2018-08-03T10:02:13.930Z,9.00
2018-08-03T10:04:42.236Z,10.13
2018-08-03T10:07:10.510Z,11.23
2018-08-03T10:09:38.783Z,9.33
2018-08-03T10:12:07.036Z,9.07
2018-08-03T10:14:35.306Z,8.83
2018-08-03T10:17:03.302Z,9.50
2018-08-03T10:19:31.588Z,9.80
2018-08-03T10:21:59.880Z,11.60
2018-08-03T10:24:28.133Z,9.40
2018-08-03T10:26:56.204Z,8.70
2018-08-03T10:29:24.212Z,8.13
2018-08-03T10:31:52.601Z,11.90
2018-08-03T10:34:20.896Z,10.10
2018-08-03T10:36:49.310Z,8.40
2018-08-03T10:39:17.600Z,9.60
2018-08-03T10:41:45.862Z,8.20
2018-08-03T10:44:14.158Z,10.23
2018-08-03T10:46:42.460Z,8.27
2018-08-03T10:49:10.736Z,8.37
2018-08-03T10:51:39.083Z,8.50
2018-08-03T10:54:07.382Z,9.70
2018-08-03T10:56:35.669Z,8.80
2018-08-03T10:59:04.023Z,8.70
2018-08-03T11:01:32.353Z,8.30
2018-08-03T11:04:00.584Z,10.53
2018-08-03T11:06:28.880Z,11.47
2018-08-03T11:08:57.148Z,9.80
2018-08-03T11:11:25.446Z,9.33
2018-08-03T11:13:53.734Z,8.73
2018-08-03T11:16:21.999Z,9.57
2018-08-03T11:18:50.264Z,10.00
2018-08-03T11:21:18.582Z,9.57
2018-08-03T11:23:46.858Z,9.60
2018-08-03T11:26:15.119Z,9.17
2018-08-03T11:28:43.412Z,9.30
2018-08-03T11:31:11.671Z,8.50
2018-08-03T11:33:39.962Z,9.30
2018-08-03T11:36:08.216Z,9.47
2018-08-03T11:38:36.226Z,9.33
2018-08-03T11:41:04.510Z,10.07
2018-08-03T11:43:32.941Z,8.63
2018-08-03T11:46:01.215Z,9.10
2018-08-03T11:48:29.549Z,9.20
2018-08-03T11:50:57.778Z,8.87
2018-08-03T11:53:26.049Z,9.07
2018-08-03T11:55:54.333Z,8.60
2018-08-03T11:58:22.628Z,8.60
2018-08-03T12:00:50.969Z,8.33
2018-08-03T12:03:19.224Z,9.40
2018-08-03T12:05:47.538Z,8.97
2018-08-03T12:08:15.809Z,9.10
2018-08-03T12:10:44.096Z,11.03
2018-08-03T12:13:12.385Z,8.73
2018-08-03T12:15:40.669Z,12.37
2018-08-03T12:18:12.295Z,8.07
2018-08-03T12:20:40.692Z,9.87
2018-08-03T12:23:08.998Z,8.87
2018-08-03T12:25:37.251Z,8.77
2018-08-03T12:28:05.659Z,8.83
2018-08-03T12:30:33.950Z,9.87
2018-08-03T12:33:02.240Z,9.03
2018-08-03T12:35:30.494Z,9.03
2018-08-03T12:37:59.123Z,8.27
2018-08-03T12:40:27.394Z,7.33
2018-08-03T12:42:55.675Z,8.23
2018-08-03T12:45:33.832Z,10.90
2018-08-03T12:47:52.369Z,8.70
2018-08-03T12:50:20.659Z,8.60
2018-08-03T12:52:48.977Z,8.23
2018-08-03T12:55:17.241Z,8.33
2018-08-03T12:57:45.230Z,7.90
2018-08-03T13:00:13.555Z,9.97
2018-08-03T13:02:41.901Z,9.97
2018-08-03T13:05:10.126Z,8.50
2018-08-03T13:07:38.521Z,7.47
2018-08-03T13:10:06.683Z,7.30
2018-08-03T13:12:34.952Z,9.57
2018-08-03T13:15:03.286Z,7.77
2018-08-03T13:17:31.605Z,7.77
2018-08-03T13:19:59.907Z,7.50
2018-08-03T13:22:28.176Z,7.70
2018-08-03T13:24:56.436Z,9.60
2018-08-03T13:27:24.721Z,8.77
2018-08-03T13:29:53.015Z,7.90
2018-08-03T13:32:21.338Z,9.43
2018-08-03T13:34:49.609Z,8.37
2018-08-03T13:37:17.900Z,7.43
2018-08-03T13:39:45.903Z,7.63
2018-08-03T13:42:13.907Z,8.40
2018-08-03T13:44:42.335Z,7.57
2018-08-03T13:47:10.565Z,7.57
2018-08-03T13:49:38.899Z,7.00
2018-08-03T13:52:07.202Z,9.27
2018-08-03T13:54:35.477Z,7.97
2018-08-03T13:57:03.773Z,7.73
2018-08-03T13:59:32.063Z,6.67
2018-08-03T14:02:11.691Z,7.20
2018-08-03T14:04:39.963Z,7.10
2018-08-03T14:07:08.335Z,6.67
2018-08-03T14:09:36.755Z,6.83
2018-08-03T14:12:05.166Z,6.67
2018-08-03T14:14:33.439Z,6.90
2018-08-03T14:17:01.828Z,6.60
2018-08-03T14:19:30.098Z,7.07
2018-08-03T14:21:58.095Z,6.67
2018-08-03T14:24:26.428Z,7.60
2018-08-03T14:26:54.709Z,6.87
2018-08-03T14:29:22.993Z,7.17
2018-08-03T14:31:51.286Z,7.47
2018-08-03T14:34:19.563Z,7.07
2018-08-03T14:36:47.911Z,7.17
2018-08-03T14:39:16.195Z,7.13
2018-08-03T14:41:44.460Z,6.83
2018-08-03T14:44:12.755Z,9.83
2018-08-03T14:46:41.081Z,9.03
2018-08-03T14:49:09.401Z,6.77
2018-08-03T14:51:38.026Z,9.87
2018-08-03T14:54:06.414Z,6.73
2018-08-03T14:56:34.807Z,8.93
2018-08-03T14:59:03.126Z,6.30
2018-08-03T15:01:31.419Z,7.07
2018-08-03T15:03:59.689Z,6.23
2018-08-03T15:06:27.993Z,6.33
2018-08-03T15:08:56.360Z,10.10
2018-08-03T15:11:24.351Z,6.67
2018-08-03T15:13:52.706Z,6.93
2018-08-03T15:16:20.940Z,17.87
2018-08-03T15:18:49.211Z,6.50
2018-08-03T15:21:17.487Z,6.83
2018-08-03T15:23:45.748Z,7.20
2018-08-03T15:26:14.031Z,9.47
2018-08-03T15:28:42.310Z,6.67
2018-08-03T15:31:10.479Z,6.50
2018-08-03T15:33:38.780Z,6.77
2018-08-03T15:36:07.096Z,6.27
2018-08-03T15:38:35.406Z,8.37
2018-08-03T15:41:03.688Z,6.07
2018-08-03T15:43:31.976Z,7.20
2018-08-03T15:46:00.292Z,8.63
2018-08-03T15:48:28.580Z,6.43
2018-08-03T15:50:56.867Z,8.33
2018-08-03T15:53:25.152Z,8.10
2018-08-03T15:55:53.451Z,6.43
2018-08-03T15:58:21.740Z,5.53
2018-08-03T16:00:50.054Z,9.13
2018-08-03T16:03:18.329Z,7.40
2018-08-03T16:05:46.607Z,9.93
2018-08-03T16:08:14.874Z,9.03
2018-08-03T16:10:43.135Z,6.10
2018-08-03T16:13:11.428Z,7.77
2018-08-03T16:15:39.699Z,11.97
2018-08-03T16:18:07.964Z,6.23
2018-08-03T16:20:36.246Z,5.93
2018-08-03T16:23:04.263Z,5.63
2018-08-03T16:25:32.833Z,6.43
2018-08-03T16:28:01.115Z,5.60
2018-08-03T16:30:29.441Z,6.70
2018-08-03T16:32:57.730Z,5.30
2018-08-03T16:35:26.006Z,4.83
2018-08-03T16:37:54.329Z,6.37
2018-08-03T16:40:22.604Z,5.90
2018-08-03T16:42:50.880Z,5.97
2018-08-03T16:45:19.167Z,7.60
2018-08-03T16:47:47.436Z,6.20
2018-08-03T16:50:15.474Z,5.43
2018-08-03T16:52:43.726Z,6.87
2018-08-03T16:55:12.019Z,5.23
2018-08-03T16:57:40.322Z,5.57
2018-08-03T17:00:08.719Z,5.77
2018-08-03T17:02:37.058Z,4.50
2018-08-03T17:05:05.609Z,6.90
2018-08-03T17:07:33.880Z,5.57
2018-08-03T17:10:02.160Z,9.70
2018-08-03T17:12:30.422Z,5.70
2018-08-03T17:14:58.680Z,5.50
2018-08-03T17:17:26.943Z,6.23
2018-08-03T17:19:55.236Z,5.73
2018-08-03T17:22:23.508Z,5.30
2018-08-03T17:24:51.780Z,7.67
2018-08-03T17:27:19.776Z,7.10
2018-08-03T17:29:48.180Z,4.53
2018-08-03T17:32:16.552Z,5.90
2018-08-03T17:34:44.848Z,10.17
2018-08-03T17:37:13.120Z,10.90
2018-08-03T17:39:41.372Z,5.03
2018-08-03T17:42:09.692Z,5.07
2018-08-03T17:44:37.981Z,5.78
2018-08-03T17:47:06.276Z,4.57
2018-08-03T17:49:34.541Z,6.15
2018-08-03T17:52:02.836Z,4.30
2018-08-03T17:54:31.131Z,6.78
2018-08-03T17:56:59.160Z,4.97
2018-08-03T17:59:27.448Z,6.37
2018-08-03T18:01:55.731Z,5.03
2018-08-03T18:04:24.000Z,5.07
2018-08-03T18:06:52.271Z,4.87
2018-08-03T18:09:20.323Z,5.10
2018-08-03T18:11:48.552Z,4.70
2018-08-03T18:14:16.850Z,4.50
2018-08-03T18:16:45.165Z,4.57
2018-08-03T18:19:13.396Z,5.00
2018-08-03T18:21:41.721Z,7.17
2018-08-03T18:24:09.961Z,5.27
2018-08-03T18:26:38.298Z,5.63
2018-08-03T18:29:06.598Z,5.40
2018-08-03T18:31:34.849Z,4.93
2018-08-03T18:34:03.132Z,5.17
2018-08-03T18:36:31.405Z,6.83
2018-08-03T18:38:59.718Z,20.83
2018-08-03T18:41:28.149Z,22.00
2018-08-03T18:43:56.448Z,10.63
2018-08-03T18:46:24.716Z,10.67
2018-08-03T18:48:53.039Z,6.87
2018-08-03T18:51:21.361Z,6.30
2018-08-03T18:53:49.641Z,4.93
2018-08-03T18:56:17.902Z,4.90
2018-08-03T18:58:46.202Z,4.70
2018-08-03T19:01:14.203Z,4.90
2018-08-03T19:03:42.484Z,6.10
2018-08-03T19:06:11.106Z,4.87
2018-08-03T19:08:39.908Z,5.33
2018-08-03T19:11:08.206Z,5.53
2018-08-03T19:13:36.614Z,6.90
2018-08-03T19:16:04.921Z,5.13
2018-08-03T19:18:33.231Z,5.63
2018-08-03T19:21:01.545Z,7.60
2018-08-03T19:23:29.829Z,4.90
2018-08-03T19:25:58.141Z,4.97
2018-08-03T19:28:27.429Z,5.20
2018-08-03T19:30:55.442Z,6.73
2018-08-03T19:33:23.763Z,5.23
2018-08-03T19:35:52.084Z,5.13
2018-08-03T19:38:20.370Z,4.70
2018-08-03T19:40:48.709Z,6.60
2018-08-03T19:43:17.137Z,24.17
2018-08-03T19:45:45.645Z,13.67
2018-08-03T19:48:13.981Z,9.70
2018-08-03T19:50:42.261Z,18.37
2018-08-03T19:53:10.645Z,12.77
2018-08-03T19:55:38.935Z,8.10
2018-08-03T19:58:07.233Z,7.73
2018-08-03T20:00:35.589Z,5.23
2018-08-03T20:03:03.960Z,5.00
2018-08-03T20:05:32.277Z,5.37
2018-08-03T20:08:00.359Z,5.87
2018-08-03T20:10:28.358Z,5.13
2018-08-03T20:12:56.680Z,5.67
2018-08-03T20:15:25.033Z,6.03
2018-08-03T20:17:53.330Z,5.53
2018-08-03T20:20:21.701Z,5.37
2018-08-03T20:22:50.013Z,5.50
2018-08-03T20:25:18.037Z,6.37
2018-08-03T20:27:46.319Z,5.93
2018-08-03T20:30:14.616Z,6.33
2018-08-03T20:32:42.923Z,6.20
2018-08-03T20:35:11.251Z,6.10
2018-08-03T20:37:39.544Z,5.87
2018-08-03T20:40:08.429Z,8.07
2018-08-03T20:42:36.509Z,6.90
2018-08-03T20:45:05.071Z,12.67
2018-08-03T20:47:33.385Z,20.53
2018-08-03T20:50:01.386Z,14.83
2018-08-03T20:52:30.044Z,9.53
2018-08-03T20:54:58.323Z,7.20
2018-08-03T20:57:26.653Z,7.43
2018-08-03T20:59:54.955Z,6.10
2018-08-03T21:02:23.681Z,6.90
2018-08-03T21:04:52.026Z,5.97
2018-08-03T21:07:20.341Z,14.17
2018-08-03T21:09:48.653Z,6.20
2018-08-03T21:12:16.963Z,5.87
2018-08-03T21:14:45.282Z,5.97
2018-08-03T21:17:13.618Z,6.23
2018-08-03T21:19:41.922Z,5.73
2018-08-03T21:22:10.204Z,8.87
2018-08-03T21:24:38.502Z,6.00
2018-08-03T21:27:06.847Z,6.17
2018-08-03T21:29:35.127Z,6.70
2018-08-03T21:32:03.437Z,5.83
2018-08-03T21:34:31.715Z,5.77
2018-08-03T21:37:00.036Z,6.00
2018-08-03T21:39:28.339Z,6.00
2018-08-03T21:41:56.625Z,6.50
2018-08-03T21:44:24.928Z,5.80
2018-08-03T21:46:53.245Z,5.63
2018-08-03T21:49:21.267Z,6.77
2018-08-03T21:51:49.547Z,5.57
2018-08-03T21:54:17.831Z,6.13
2018-08-03T21:56:46.127Z,5.73
2018-08-03T21:59:14.415Z,5.87
2018-08-03T22:01:42.728Z,5.67
2018-08-03T22:04:11.080Z,6.30
2018-08-03T22:06:39.360Z,5.80
2018-08-03T22:09:08.604Z,5.70
2018-08-03T22:11:36.977Z,5.60
2018-08-03T22:14:05.297Z,6.30
2018-08-03T22:16:33.577Z,6.53
2018-08-03T22:19:01.890Z,6.23
2018-08-03T22:21:30.156Z,6.10
2018-08-03T22:23:58.429Z,5.50
2018-08-03T22:26:26.687Z,6.03
2018-08-03T22:28:54.986Z,6.37
2018-08-03T22:31:23.265Z,6.10
2018-08-03T22:33:51.627Z,8.10
2018-08-03T22:36:19.929Z,6.80
2018-08-03T22:38:48.195Z,6.27
2018-08-03T22:41:16.467Z,6.07
2018-08-03T22:43:44.753Z,6.30
2018-08-03T22:46:13.036Z,5.50
2018-08-03T22:48:41.311Z,6.77
2018-08-03T22:51:09.617Z,6.07
2018-08-03T22:53:37.974Z,6.30
2018-08-03T22:56:05.996Z,6.40
2018-08-03T22:58:34.270Z,6.97
2018-08-03T23:01:02.611Z,6.60
2018-08-03T23:03:30.554Z,6.50
2018-08-03T23:05:58.903Z,6.63
2018-08-03T23:08:27.192Z,6.03
2018-08-03T23:10:55.450Z,6.80
2018-08-03T23:13:23.743Z,6.53
2018-08-03T23:15:52.040Z,6.70
2018-08-03T23:18:20.323Z,8.77
2018-08-03T23:20:48.591Z,6.43
2018-08-03T23:23:16.883Z,6.93
2018-08-03T23:25:45.175Z,7.23
2018-08-03T23:28:13.520Z,6.20
2018-08-03T23:30:41.809Z,6.30
2018-08-03T23:33:10.083Z,6.40
2018-08-03T23:35:38.603Z,6.90
2018-08-03T23:38:06.881Z,6.00
2018-08-03T23:40:35.153Z,7.10
2018-08-03T23:43:03.534Z,6.23
2018-08-03T23:45:31.809Z,7.07
2018-08-03T23:48:00.114Z,6.67
2018-08-03T23:50:28.423Z,8.90
2018-08-03T23:52:56.524Z,6.93
2018-08-03T23:55:24.806Z,8.80
2018-08-03T23:57:53.083Z,8.77
